createdAt,value
2022-10-10T00:04:04.816Z,60.44
2022-10-10T00:09:07.682Z,60.55
2022-10-10T00:14:10.512Z,60.75
2022-10-10T00:19:13.667Z,60.82
2022-10-10T00:24:16.484Z,60.69
2022-10-10T00:29:19.353Z,61.07
2022-10-10T00:34:22.259Z,61.36
2022-10-10T00:39:25.363Z,61.18
2022-10-10T00:44:28.640Z,61.10
2022-10-10T00:49:32.109Z,61.03
2022-10-10T00:54:38.082Z,60.95
2022-10-10T00:59:42.812Z,61.19
2022-10-10T01:04:45.957Z,61.11
2022-10-10T01:09:51.421Z,61.24
2022-10-10T01:15:15.668Z,61.21
2022-10-10T01:20:59.728Z,61.14
2022-10-10T01:26:23.936Z,61.31
2022-10-10T01:31:29.403Z,61.32
2022-10-10T01:37:05.940Z,61.45
2022-10-10T01:42:20.630Z,61.37
2022-10-10T01:47:23.732Z,61.27
2022-10-10T01:52:38.596Z,61.28
2022-10-10T01:58:16.221Z,61.17
2022-10-10T02:03:30.148Z,61.21
2022-10-10T02:08:35.667Z,61.25
2022-10-10T02:14:02.749Z,61.43
2022-10-10T02:19:10.907Z,61.60
2022-10-10T02:24:14.961Z,61.80
2022-10-10T02:29:22.169Z,61.77
2022-10-10T02:34:29.445Z,61.80
2022-10-10T02:39:36.570Z,61.81
2022-10-10T02:44:40.315Z,62.28
2022-10-10T02:49:43.875Z,62.52
2022-10-10T02:54:47.024Z,62.17
2022-10-10T02:59:50.046Z,61.89
2022-10-10T03:04:52.895Z,61.84
2022-10-10T03:09:55.759Z,62.00
2022-10-10T03:15:02.025Z,61.93
2022-10-10T03:20:09.048Z,61.84
2022-10-10T03:25:12.020Z,61.59
2022-10-10T03:30:15.039Z,62.03
2022-10-10T03:35:17.940Z,61.87
2022-10-10T03:40:21.022Z,62.04
2022-10-10T03:45:24.682Z,62.10
2022-10-10T03:50:27.741Z,61.72
2022-10-10T03:55:30.694Z,62.06
2022-10-10T04:00:33.712Z,61.80
2022-10-10T04:05:38.860Z,61.72
2022-10-10T04:10:41.902Z,61.53
2022-10-10T04:15:44.952Z,61.52
2022-10-10T04:20:47.942Z,61.64
2022-10-10T04:25:52.553Z,61.84
2022-10-10T04:30:56.738Z,61.81
2022-10-10T04:35:59.892Z,61.97
2022-10-10T04:41:03.553Z,61.90
2022-10-10T04:46:06.609Z,62.09
2022-10-10T04:51:12.796Z,61.92
2022-10-10T04:56:15.634Z,61.97
2022-10-10T05:01:18.809Z,61.78
2022-10-10T05:06:21.831Z,61.80
2022-10-10T05:11:24.799Z,61.72
2022-10-10T05:16:28.182Z,62.07
2022-10-10T05:21:31.759Z,62.17
2022-10-10T05:26:34.556Z,62.18
2022-10-10T05:31:37.413Z,62.23
2022-10-10T05:36:41.103Z,62.50
2022-10-10T05:41:44.243Z,62.19
2022-10-10T05:46:47.068Z,62.43
2022-10-10T05:51:50.124Z,62.30
2022-10-10T05:56:52.997Z,62.26
2022-10-10T06:01:56.408Z,62.44
2022-10-10T06:06:59.234Z,62.46
2022-10-10T06:12:02.555Z,62.62
2022-10-10T06:17:05.373Z,62.51
2022-10-10T06:22:08.619Z,62.48
2022-10-10T06:27:11.546Z,62.61
2022-10-10T06:32:14.440Z,62.44
2022-10-10T06:37:17.490Z,62.67
2022-10-10T06:42:20.451Z,62.79
2022-10-10T06:47:28.557Z,62.90
2022-10-10T06:52:31.646Z,62.67
2022-10-10T06:57:34.702Z,62.46
2022-10-10T07:02:40.847Z,62.25
2022-10-10T07:07:45.103Z,62.49
2022-10-10T07:12:47.988Z,62.52
2022-10-10T07:17:57.642Z,62.24
2022-10-10T07:23:01.233Z,62.27
2022-10-10T07:28:04.215Z,62.17
2022-10-10T07:33:07.306Z,62.16
2022-10-10T07:38:12.726Z,62.26
2022-10-10T07:43:15.565Z,62.21
2022-10-10T07:48:18.365Z,62.24
2022-10-10T07:53:21.377Z,62.33
2022-10-10T07:58:24.205Z,61.84
2022-10-10T08:03:27.337Z,61.89
2022-10-10T08:08:33.956Z,61.72
2022-10-10T08:13:38.620Z,61.33
2022-10-10T08:18:45.054Z,61.10
2022-10-10T08:23:48.047Z,61.09
2022-10-10T08:28:50.965Z,60.56
2022-10-10T08:33:56.309Z,60.56
2022-10-10T08:39:01.058Z,60.39
2022-10-10T08:44:14.405Z,60.37
2022-10-10T08:49:26.054Z,60.46
2022-10-10T08:54:32.379Z,60.03
2022-10-10T08:59:39.837Z,59.85
2022-10-10T09:04:43.259Z,59.66
2022-10-10T09:09:58.977Z,59.51
2022-10-10T09:15:19.176Z,59.36
2022-10-10T09:20:49.166Z,59.14
2022-10-10T09:26:06.407Z,58.94
2022-10-10T09:31:28.752Z,58.83
2022-10-10T09:36:35.965Z,58.56
2022-10-10T09:41:47.560Z,58.27
2022-10-10T09:46:50.661Z,58.21
2022-10-10T09:51:53.629Z,58.15
2022-10-10T09:56:58.214Z,57.74
2022-10-10T10:02:03.130Z,57.58
2022-10-10T10:07:28.185Z,57.23
2022-10-10T10:12:40.691Z,56.82
2022-10-10T10:17:43.805Z,56.83
2022-10-10T10:22:47.208Z,56.54
2022-10-10T10:27:50.147Z,56.47
2022-10-10T10:33:05.607Z,56.12
2022-10-10T10:38:16.464Z,55.36
2022-10-10T10:43:38.040Z,54.66
2022-10-10T10:49:05.536Z,53.97
2022-10-10T10:54:40.482Z,53.29
2022-10-10T11:00:21.881Z,52.97
2022-10-10T11:05:41.397Z,52.76
2022-10-10T11:11:02.145Z,52.62
2022-10-10T11:16:36.291Z,52.23
2022-10-10T11:22:19.972Z,51.74
2022-10-10T11:27:49.215Z,51.73
2022-10-10T11:33:07.499Z,51.12
2022-10-10T11:38:22.950Z,50.82
2022-10-10T11:43:48.402Z,50.42
2022-10-10T11:49:06.710Z,50.10
2022-10-10T11:54:24.202Z,49.66
2022-10-10T11:59:32.249Z,49.45
2022-10-10T12:04:36.478Z,49.20
2022-10-10T12:09:46.309Z,49.00
2022-10-10T12:14:54.357Z,48.96
2022-10-10T12:20:29.477Z,48.78
2022-10-10T12:25:45.671Z,48.59
2022-10-10T12:30:58.775Z,48.40
2022-10-10T12:36:17.099Z,48.25
2022-10-10T12:41:20.399Z,48.31
2022-10-10T12:46:27.188Z,47.99
2022-10-10T12:51:33.577Z,48.09
2022-10-10T12:56:36.611Z,47.69
2022-10-10T13:01:42.463Z,47.50
2022-10-10T13:06:48.083Z,47.34
2022-10-10T13:12:23.076Z,46.94
2022-10-10T13:17:38.173Z,46.44
2022-10-10T13:22:44.062Z,46.15
2022-10-10T13:27:53.111Z,45.94
2022-10-10T13:32:56.781Z,45.89
2022-10-10T13:38:01.532Z,45.37
2022-10-10T13:43:04.577Z,45.60
2022-10-10T13:48:27.203Z,45.40
2022-10-10T13:53:30.281Z,45.17
2022-10-10T13:58:40.869Z,45.18
2022-10-10T14:03:46.983Z,45.06
2022-10-10T14:08:51.344Z,45.07
2022-10-10T14:14:20.427Z,45.30
2022-10-10T14:19:23.968Z,45.38
2022-10-10T14:24:26.902Z,45.59
2022-10-10T14:29:29.802Z,45.51
2022-10-10T14:34:32.646Z,45.52
2022-10-10T14:39:35.456Z,45.64
2022-10-10T14:44:38.375Z,45.82
2022-10-10T14:49:41.253Z,45.94
2022-10-10T14:54:44.149Z,46.08
2022-10-10T14:59:49.721Z,46.20
2022-10-10T15:04:54.391Z,46.42
2022-10-10T15:10:30.891Z,46.55
2022-10-10T15:15:20.379Z,46.76
2022-10-10T15:20:30.619Z,46.97
2022-10-10T15:25:34.549Z,47.27
2022-10-10T15:30:42.940Z,47.43
2022-10-10T15:36:08.123Z,48.00
2022-10-10T15:41:13.035Z,48.07
2022-10-10T15:46:15.845Z,48.26
2022-10-10T15:51:19.135Z,48.48
2022-10-10T15:56:22.271Z,48.62
2022-10-10T16:01:26.686Z,48.90
2022-10-10T16:06:29.727Z,49.27
2022-10-10T16:11:32.800Z,49.58
2022-10-10T16:16:35.696Z,50.18
2022-10-10T16:21:38.947Z,50.42
2022-10-10T16:26:42.028Z,50.67
2022-10-10T16:31:45.230Z,50.88
2022-10-10T16:36:48.076Z,51.45
2022-10-10T16:41:51.007Z,51.47
2022-10-10T16:46:53.980Z,51.84
2022-10-10T16:51:56.833Z,51.94
2022-10-10T16:56:59.653Z,52.25
2022-10-10T17:02:02.628Z,52.25
2022-10-10T17:07:05.800Z,52.34
2022-10-10T17:12:08.760Z,52.59
2022-10-10T17:17:13.208Z,52.71
2022-10-10T17:22:16.858Z,52.67
2022-10-10T17:27:19.855Z,52.86
2022-10-10T17:32:23.825Z,52.71
2022-10-10T17:37:27.171Z,52.95
2022-10-10T17:42:32.622Z,53.05
2022-10-10T17:47:35.640Z,53.17
2022-10-10T17:52:38.641Z,53.32
2022-10-10T17:57:45.682Z,53.30
2022-10-10T18:02:51.282Z,53.29
2022-10-10T18:07:54.371Z,53.20
2022-10-10T18:12:59.102Z,53.30
2022-10-10T18:18:02.271Z,53.37
2022-10-10T18:23:05.633Z,53.53
2022-10-10T18:28:08.658Z,53.90
2022-10-10T18:33:11.818Z,53.67
2022-10-10T18:38:14.922Z,53.76
2022-10-10T18:43:19.809Z,53.88
2022-10-10T18:48:22.696Z,53.79
2022-10-10T18:53:25.778Z,54.11
2022-10-10T18:58:32.772Z,54.14
2022-10-10T19:03:37.179Z,54.15
2022-10-10T19:08:40.775Z,54.72
2022-10-10T19:13:43.985Z,54.87
2022-10-10T19:18:47.312Z,54.81
2022-10-10T19:23:50.396Z,54.75
2022-10-10T19:28:53.359Z,54.90
2022-10-10T19:33:57.446Z,54.87
2022-10-10T19:39:01.092Z,55.20
2022-10-10T19:44:05.833Z,55.35
2022-10-10T19:49:10.018Z,55.45
2022-10-10T19:54:12.914Z,55.59
2022-10-10T19:59:15.908Z,55.86
2022-10-10T20:04:18.803Z,55.99
2022-10-10T20:09:21.752Z,56.00
2022-10-10T20:14:24.622Z,56.31
2022-10-10T20:19:27.734Z,56.48
2022-10-10T20:24:31.229Z,56.45
2022-10-10T20:29:34.301Z,56.57
2022-10-10T20:34:37.280Z,56.89
2022-10-10T20:39:40.196Z,56.84
2022-10-10T20:44:43.373Z,56.91
2022-10-10T20:49:46.313Z,57.24
2022-10-10T20:54:49.262Z,57.41
2022-10-10T20:59:52.113Z,57.58
2022-10-10T21:04:54.916Z,57.72
2022-10-10T21:09:59.362Z,57.88
2022-10-10T21:15:03.189Z,58.14
2022-10-10T21:20:06.407Z,58.17
2022-10-10T21:25:09.582Z,58.25
2022-10-10T21:30:12.546Z,58.23
2022-10-10T21:35:16.149Z,58.37
2022-10-10T21:40:19.990Z,58.60
2022-10-10T21:45:26.282Z,58.55
2022-10-10T21:50:29.868Z,58.60
2022-10-10T21:55:38.394Z,58.90
2022-10-10T22:00:43.387Z,59.00
2022-10-10T22:05:47.754Z,59.14
2022-10-10T22:10:52.847Z,59.49
2022-10-10T22:15:56.830Z,59.52
2022-10-10T22:21:07.101Z,59.82
2022-10-10T22:26:14.904Z,59.93
2022-10-10T22:31:21.266Z,60.12
2022-10-10T22:36:25.356Z,59.93
2022-10-10T22:41:28.549Z,60.46
2022-10-10T22:46:32.247Z,60.06
2022-10-10T22:51:35.785Z,60.03
2022-10-10T22:56:38.837Z,60.20
2022-10-10T23:01:43.145Z,60.16
2022-10-10T23:06:47.912Z,60.27
2022-10-10T23:11:51.456Z,60.37
2022-10-10T23:16:55.399Z,60.63
2022-10-10T23:21:59.347Z,60.56
2022-10-10T23:27:06.275Z,60.74
2022-10-10T23:32:10.651Z,60.65
2022-10-10T23:37:14.496Z,60.64
2022-10-10T23:42:18.344Z,60.74
2022-10-10T23:47:22.184Z,60.84
2022-10-10T23:52:26.497Z,61.13
2022-10-10T23:57:29.350Z,61.06
